sensor_id;sensor_type;location;lat;lon;timestamp;P1;durP1;ratioP1;P2;durP2;ratioP2
44434;SDS011;30138;20.964;105.830;2023-03-23T00:03:56;125.88;;;72.07;;
44434;SDS011;30138;20.964;105.830;2023-03-23T00:09:03;126.65;;;72.07;;
44434;SDS011;30138;20.964;105.830;2023-03-23T00:14:12;139.00;;;76.13;;
44434;SDS011;30138;20.964;105.830;2023-03-23T00:19:24;122.38;;;72.10;;
44434;SDS011;30138;20.964;105.830;2023-03-23T00:24:31;130.52;;;76.15;;
44434;SDS011;30138;20.964;105.830;2023-03-23T00:29:40;118.22;;;74.03;;
44434;SDS011;30138;20.964;105.830;2023-03-23T00:34:48;125.82;;;75.22;;
44434;SDS011;30138;20.964;105.830;2023-03-23T00:39:57;134.63;;;74.63;;
44434;SDS011;30138;20.964;105.830;2023-03-23T00:45:14;130.73;;;74.35;;
44434;SDS011;30138;20.964;105.830;2023-03-23T00:50:21;133.77;;;75.68;;
44434;SDS011;30138;20.964;105.830;2023-03-23T00:55:57;124.80;;;73.88;;
44434;SDS011;30138;20.964;105.830;2023-03-23T01:01:06;131.75;;;78.82;;
44434;SDS011;30138;20.964;105.830;2023-03-23T01:06:15;140.20;;;78.07;;
44434;SDS011;30138;20.964;105.830;2023-03-23T01:11:32;139.23;;;79.63;;
44434;SDS011;30138;20.964;105.830;2023-03-23T01:17:13;145.70;;;80.82;;
44434;SDS011;30138;20.964;105.830;2023-03-23T01:22:20;146.38;;;83.15;;
44434;SDS011;30138;20.964;105.830;2023-03-23T01:27:27;148.75;;;88.18;;
44434;SDS011;30138;20.964;105.830;2023-03-23T01:39:04;153.70;;;88.90;;
44434;SDS011;30138;20.964;105.830;2023-03-23T01:50:20;157.93;;;89.05;;
44434;SDS011;30138;20.964;105.830;2023-03-23T01:55:40;159.45;;;90.47;;
44434;SDS011;30138;20.964;105.830;2023-03-23T02:00:52;163.63;;;92.30;;
44434;SDS011;30138;20.964;105.830;2023-03-23T02:06:04;153.65;;;93.10;;
44434;SDS011;30138;20.964;105.830;2023-03-23T02:11:35;161.65;;;95.75;;
44434;SDS011;30138;20.964;105.830;2023-03-23T02:16:43;175.23;;;98.13;;
44434;SDS011;30138;20.964;105.830;2023-03-23T02:22:02;171.27;;;99.75;;
44434;SDS011;30138;20.964;105.830;2023-03-23T02:27:48;180.70;;;103.00;;
44434;SDS011;30138;20.964;105.830;2023-03-23T02:33:42;172.07;;;102.35;;
44434;SDS011;30138;20.964;105.830;2023-03-23T02:38:56;174.60;;;104.65;;
44434;SDS011;30138;20.964;105.830;2023-03-23T02:44:09;179.55;;;107.38;;
44434;SDS011;30138;20.964;105.830;2023-03-23T02:49:20;186.20;;;105.93;;
44434;SDS011;30138;20.964;105.830;2023-03-23T02:54:29;193.88;;;107.97;;
44434;SDS011;30138;20.964;105.830;2023-03-23T02:59:36;179.82;;;107.28;;
44434;SDS011;30138;20.964;105.830;2023-03-23T03:04:48;186.10;;;109.22;;
44434;SDS011;30138;20.964;105.830;2023-03-23T03:10:06;192.93;;;110.10;;
44434;SDS011;30138;20.964;105.830;2023-03-23T03:15:24;194.52;;;111.00;;
44434;SDS011;30138;20.964;105.830;2023-03-23T03:20:40;185.50;;;113.35;;
44434;SDS011;30138;20.964;105.830;2023-03-23T03:25:52;185.43;;;113.40;;
44434;SDS011;30138;20.964;105.830;2023-03-23T03:31:15;196.93;;;116.50;;
44434;SDS011;30138;20.964;105.830;2023-03-23T03:36:29;196.55;;;116.25;;
44434;SDS011;30138;20.964;105.830;2023-03-23T03:41:41;189.20;;;116.30;;
44434;SDS011;30138;20.964;105.830;2023-03-23T03:46:49;189.68;;;118.07;;
44434;SDS011;30138;20.964;105.830;2023-03-23T03:51:58;192.85;;;119.63;;
44434;SDS011;30138;20.964;105.830;2023-03-23T03:57:14;194.02;;;121.60;;
44434;SDS011;30138;20.964;105.830;2023-03-23T04:02:52;190.20;;;119.93;;
44434;SDS011;30138;20.964;105.830;2023-03-23T04:08:21;200.20;;;124.65;;
44434;SDS011;30138;20.964;105.830;2023-03-23T04:13:29;200.27;;;121.27;;
44434;SDS011;30138;20.964;105.830;2023-03-23T04:18:45;202.35;;;123.22;;
44434;SDS011;30138;20.964;105.830;2023-03-23T04:24:02;193.05;;;122.10;;
44434;SDS011;30138;20.964;105.830;2023-03-23T04:29:11;210.30;;;127.65;;
44434;SDS011;30138;20.964;105.830;2023-03-23T04:34:31;199.88;;;125.38;;
44434;SDS011;30138;20.964;105.830;2023-03-23T04:39:41;202.30;;;125.10;;
44434;SDS011;30138;20.964;105.830;2023-03-23T04:44:50;206.43;;;125.63;;
44434;SDS011;30138;20.964;105.830;2023-03-23T04:50:08;211.00;;;128.38;;
44434;SDS011;30138;20.964;105.830;2023-03-23T04:55:21;202.65;;;126.97;;
44434;SDS011;30138;20.964;105.830;2023-03-23T05:00:33;218.18;;;133.15;;
44434;SDS011;30138;20.964;105.830;2023-03-23T05:05:43;211.23;;;129.35;;
44434;SDS011;30138;20.964;105.830;2023-03-23T05:10:57;209.55;;;128.73;;
44434;SDS011;30138;20.964;105.830;2023-03-23T05:16:10;213.50;;;131.55;;
44434;SDS011;30138;20.964;105.830;2023-03-23T05:21:17;221.50;;;136.38;;
44434;SDS011;30138;20.964;105.830;2023-03-23T05:26:30;208.50;;;131.05;;
44434;SDS011;30138;20.964;105.830;2023-03-23T05:31:45;216.73;;;135.57;;
44434;SDS011;30138;20.964;105.830;2023-03-23T05:36:53;218.95;;;137.88;;
44434;SDS011;30138;20.964;105.830;2023-03-23T05:42:24;229.45;;;139.70;;
44434;SDS011;30138;20.964;105.830;2023-03-23T05:47:48;223.70;;;141.20;;
44434;SDS011;30138;20.964;105.830;2023-03-23T05:52:56;225.05;;;139.35;;
44434;SDS011;30138;20.964;105.830;2023-03-23T05:58:11;225.35;;;139.75;;
44434;SDS011;30138;20.964;105.830;2023-03-23T06:03:22;229.77;;;140.18;;
44434;SDS011;30138;20.964;105.830;2023-03-23T06:08:46;221.45;;;141.55;;
44434;SDS011;30138;20.964;105.830;2023-03-23T06:14:05;218.32;;;137.43;;
44434;SDS011;30138;20.964;105.830;2023-03-23T06:19:14;233.60;;;144.68;;
44434;SDS011;30138;20.964;105.830;2023-03-23T06:24:32;235.35;;;144.80;;
44434;SDS011;30138;20.964;105.830;2023-03-23T06:29:43;227.25;;;143.13;;
44434;SDS011;30138;20.964;105.830;2023-03-23T06:34:50;223.32;;;143.27;;
44434;SDS011;30138;20.964;105.830;2023-03-23T06:40:16;222.70;;;144.40;;
44434;SDS011;30138;20.964;105.830;2023-03-23T06:45:32;229.48;;;144.43;;
44434;SDS011;30138;20.964;105.830;2023-03-23T06:51:14;235.50;;;148.18;;
44434;SDS011;30138;20.964;105.830;2023-03-23T06:56:26;230.45;;;147.40;;
44434;SDS011;30138;20.964;105.830;2023-03-23T07:01:36;236.32;;;146.18;;
44434;SDS011;30138;20.964;105.830;2023-03-23T07:06:43;239.85;;;149.68;;
44434;SDS011;30138;20.964;105.830;2023-03-23T07:11:51;233.27;;;148.02;;
44434;SDS011;30138;20.964;105.830;2023-03-23T07:17:09;234.52;;;149.57;;
44434;SDS011;30138;20.964;105.830;2023-03-23T07:22:34;230.85;;;148.70;;
44434;SDS011;30138;20.964;105.830;2023-03-23T07:27:55;235.18;;;149.57;;
44434;SDS011;30138;20.964;105.830;2023-03-23T07:33:06;224.88;;;147.52;;
44434;SDS011;30138;20.964;105.830;2023-03-23T07:38:16;226.05;;;144.25;;
44434;SDS011;30138;20.964;105.830;2023-03-23T07:43:31;230.55;;;148.30;;
44434;SDS011;30138;20.964;105.830;2023-03-23T07:49:11;233.43;;;147.93;;
44434;SDS011;30138;20.964;105.830;2023-03-23T07:54:24;230.00;;;148.15;;
44434;SDS011;30138;20.964;105.830;2023-03-23T07:59:38;233.30;;;148.77;;
44434;SDS011;30138;20.964;105.830;2023-03-23T08:04:47;217.77;;;145.40;;
44434;SDS011;30138;20.964;105.830;2023-03-23T08:10:18;219.65;;;146.57;;
44434;SDS011;30138;20.964;105.830;2023-03-23T08:15:46;221.75;;;147.80;;
44434;SDS011;30138;20.964;105.830;2023-03-23T08:21:14;215.50;;;142.65;;
44434;SDS011;30138;20.964;105.830;2023-03-23T08:26:38;217.07;;;142.13;;
44434;SDS011;30138;20.964;105.830;2023-03-23T08:32:11;214.07;;;144.68;;
44434;SDS011;30138;20.964;105.830;2023-03-23T08:37:30;208.75;;;142.50;;
44434;SDS011;30138;20.964;105.830;2023-03-23T08:43:02;215.82;;;142.80;;
44434;SDS011;30138;20.964;105.830;2023-03-23T08:48:13;214.68;;;143.20;;
44434;SDS011;30138;20.964;105.830;2023-03-23T08:53:43;210.05;;;140.50;;
44434;SDS011;30138;20.964;105.830;2023-03-23T08:59:08;203.35;;;136.80;;
44434;SDS011;30138;20.964;105.830;2023-03-23T09:04:29;201.27;;;135.73;;
44434;SDS011;30138;20.964;105.830;2023-03-23T09:09:50;201.65;;;134.93;;
44434;SDS011;30138;20.964;105.830;2023-03-23T09:14:58;205.07;;;138.55;;
44434;SDS011;30138;20.964;105.830;2023-03-23T09:20:07;192.98;;;131.63;;
44434;SDS011;30138;20.964;105.830;2023-03-23T09:25:19;187.75;;;128.77;;
44434;SDS011;30138;20.964;105.830;2023-03-23T09:30:29;188.77;;;130.05;;
44434;SDS011;30138;20.964;105.830;2023-03-23T09:35:39;191.82;;;129.18;;
44434;SDS011;30138;20.964;105.830;2023-03-23T09:40:52;179.93;;;126.38;;
44434;SDS011;30138;20.964;105.830;2023-03-23T09:46:10;183.82;;;127.53;;
44434;SDS011;30138;20.964;105.830;2023-03-23T09:51:32;179.95;;;125.07;;
44434;SDS011;30138;20.964;105.830;2023-03-23T09:56:51;171.55;;;122.38;;
44434;SDS011;30138;20.964;105.830;2023-03-23T10:02:02;173.77;;;122.68;;
44434;SDS011;30138;20.964;105.830;2023-03-23T10:07:20;178.40;;;120.40;;
44434;SDS011;30138;20.964;105.830;2023-03-23T10:12:32;163.27;;;113.95;;
44434;SDS011;30138;20.964;105.830;2023-03-23T10:17:49;166.75;;;115.22;;
44434;SDS011;30138;20.964;105.830;2023-03-23T10:23:05;161.50;;;116.18;;
44434;SDS011;30138;20.964;105.830;2023-03-23T10:28:37;156.48;;;114.30;;
44434;SDS011;30138;20.964;105.830;2023-03-23T10:33:48;150.68;;;102.85;;
44434;SDS011;30138;20.964;105.830;2023-03-23T10:38:58;153.30;;;107.80;;
44434;SDS011;30138;20.964;105.830;2023-03-23T10:44:12;142.98;;;99.82;;
44434;SDS011;30138;20.964;105.830;2023-03-23T10:49:22;142.80;;;100.78;;
44434;SDS011;30138;20.964;105.830;2023-03-23T10:54:35;155.33;;;105.07;;
44434;SDS011;30138;20.964;105.830;2023-03-23T10:59:57;146.95;;;102.72;;
44434;SDS011;30138;20.964;105.830;2023-03-23T11:05:13;147.75;;;104.65;;
44434;SDS011;30138;20.964;105.830;2023-03-23T11:10:26;148.55;;;104.07;;
44434;SDS011;30138;20.964;105.830;2023-03-23T11:15:42;147.32;;;103.05;;
44434;SDS011;30138;20.964;105.830;2023-03-23T11:20:51;152.43;;;100.47;;
44434;SDS011;30138;20.964;105.830;2023-03-23T11:26:05;142.32;;;98.05;;
44434;SDS011;30138;20.964;105.830;2023-03-23T11:37:13;134.25;;;94.45;;
44434;SDS011;30138;20.964;105.830;2023-03-23T11:42:34;144.07;;;97.22;;
44434;SDS011;30138;20.964;105.830;2023-03-23T11:47:56;138.00;;;92.00;;
44434;SDS011;30138;20.964;105.830;2023-03-23T11:53:34;139.25;;;92.38;;
44434;SDS011;30138;20.964;105.830;2023-03-23T11:58:53;140.02;;;89.18;;
44434;SDS011;30138;20.964;105.830;2023-03-23T12:04:14;137.85;;;90.72;;
44434;SDS011;30138;20.964;105.830;2023-03-23T12:09:43;142.80;;;94.57;;
44434;SDS011;30138;20.964;105.830;2023-03-23T12:15:07;145.57;;;92.18;;
44434;SDS011;30138;20.964;105.830;2023-03-23T12:20:27;147.90;;;93.97;;
44434;SDS011;30138;20.964;105.830;2023-03-23T12:25:51;134.07;;;91.20;;
44434;SDS011;30138;20.964;105.830;2023-03-23T12:31:25;133.57;;;89.63;;
44434;SDS011;30138;20.964;105.830;2023-03-23T12:36:44;136.30;;;89.88;;
44434;SDS011;30138;20.964;105.830;2023-03-23T12:42:07;134.45;;;86.25;;
44434;SDS011;30138;20.964;105.830;2023-03-23T12:47:29;135.10;;;84.53;;
44434;SDS011;30138;20.964;105.830;2023-03-23T12:52:48;132.40;;;83.78;;
44434;SDS011;30138;20.964;105.830;2023-03-23T12:58:05;141.38;;;85.13;;
44434;SDS011;30138;20.964;105.830;2023-03-23T13:03:14;136.48;;;84.10;;
44434;SDS011;30138;20.964;105.830;2023-03-23T13:08:32;136.75;;;80.80;;
44434;SDS011;30138;20.964;105.830;2023-03-23T13:13:48;136.18;;;79.80;;
44434;SDS011;30138;20.964;105.830;2023-03-23T13:19:06;136.13;;;81.28;;
44434;SDS011;30138;20.964;105.830;2023-03-23T13:24:25;122.75;;;77.28;;
44434;SDS011;30138;20.964;105.830;2023-03-23T13:29:45;127.68;;;76.93;;
44434;SDS011;30138;20.964;105.830;2023-03-23T13:34:56;125.60;;;74.80;;
44434;SDS011;30138;20.964;105.830;2023-03-23T13:40:17;132.85;;;74.22;;
44434;SDS011;30138;20.964;105.830;2023-03-23T13:45:43;117.38;;;71.72;;
44434;SDS011;30138;20.964;105.830;2023-03-23T13:50:55;132.77;;;73.50;;
44434;SDS011;30138;20.964;105.830;2023-03-23T13:56:14;118.93;;;70.40;;
44434;SDS011;30138;20.964;105.830;2023-03-23T14:01:35;125.95;;;72.15;;
44434;SDS011;30138;20.964;105.830;2023-03-23T14:06:52;124.78;;;70.43;;
44434;SDS011;30138;20.964;105.830;2023-03-23T14:12:05;126.22;;;71.55;;
44434;SDS011;30138;20.964;105.830;2023-03-23T14:17:30;133.00;;;71.07;;
44434;SDS011;30138;20.964;105.830;2023-03-23T14:22:54;126.03;;;70.97;;
44434;SDS011;30138;20.964;105.830;2023-03-23T14:28:16;133.55;;;72.10;;
44434;SDS011;30138;20.964;105.830;2023-03-23T14:33:34;125.88;;;67.55;;
44434;SDS011;30138;20.964;105.830;2023-03-23T14:39:07;138.98;;;70.65;;
44434;SDS011;30138;20.964;105.830;2023-03-23T14:44:38;138.73;;;68.82;;
44434;SDS011;30138;20.964;105.830;2023-03-23T14:55:41;126.22;;;65.13;;
44434;SDS011;30138;20.964;105.830;2023-03-23T15:01:02;124.47;;;67.18;;
44434;SDS011;30138;20.964;105.830;2023-03-23T15:06:18;124.18;;;67.82;;
44434;SDS011;30138;20.964;105.830;2023-03-23T15:11:33;125.93;;;69.18;;
44434;SDS011;30138;20.964;105.830;2023-03-23T15:16:51;131.20;;;69.25;;
44434;SDS011;30138;20.964;105.830;2023-03-23T15:22:13;129.77;;;66.75;;
44434;SDS011;30138;20.964;105.830;2023-03-23T15:32:39;118.13;;;65.40;;
44434;SDS011;30138;20.964;105.830;2023-03-23T15:37:57;124.55;;;65.93;;
44434;SDS011;30138;20.964;105.830;2023-03-23T15:43:14;123.57;;;65.70;;
44434;SDS011;30138;20.964;105.830;2023-03-23T15:48:26;121.57;;;66.05;;
44434;SDS011;30138;20.964;105.830;2023-03-23T15:53:39;117.50;;;63.30;;
44434;SDS011;30138;20.964;105.830;2023-03-23T15:58:48;107.68;;;62.20;;
44434;SDS011;30138;20.964;105.830;2023-03-23T16:04:04;114.28;;;62.13;;
44434;SDS011;30138;20.964;105.830;2023-03-23T16:09:18;118.78;;;61.90;;
44434;SDS011;30138;20.964;105.830;2023-03-23T16:14:28;110.82;;;60.45;;
44434;SDS011;30138;20.964;105.830;2023-03-23T16:19:36;121.78;;;60.67;;
44434;SDS011;30138;20.964;105.830;2023-03-23T16:24:47;128.32;;;60.40;;
44434;SDS011;30138;20.964;105.830;2023-03-23T16:29:56;114.55;;;60.38;;
44434;SDS011;30138;20.964;105.830;2023-03-23T16:35:05;111.43;;;59.20;;
44434;SDS011;30138;20.964;105.830;2023-03-23T16:40:17;114.85;;;60.38;;
44434;SDS011;30138;20.964;105.830;2023-03-23T16:45:28;117.10;;;59.35;;
44434;SDS011;30138;20.964;105.830;2023-03-23T16:50:36;111.32;;;58.25;;
44434;SDS011;30138;20.964;105.830;2023-03-23T16:55:47;117.43;;;58.45;;
44434;SDS011;30138;20.964;105.830;2023-03-23T17:00:59;111.30;;;55.90;;
44434;SDS011;30138;20.964;105.830;2023-03-23T17:06:08;108.68;;;56.72;;
44434;SDS011;30138;20.964;105.830;2023-03-23T17:11:18;107.22;;;54.15;;
44434;SDS011;30138;20.964;105.830;2023-03-23T17:16:27;107.03;;;55.87;;
44434;SDS011;30138;20.964;105.830;2023-03-23T17:21:34;103.88;;;55.63;;
44434;SDS011;30138;20.964;105.830;2023-03-23T17:26:46;114.80;;;57.97;;
44434;SDS011;30138;20.964;105.830;2023-03-23T17:31:53;114.57;;;57.55;;
44434;SDS011;30138;20.964;105.830;2023-03-23T17:37:00;106.18;;;55.95;;
44434;SDS011;30138;20.964;105.830;2023-03-23T17:42:09;109.68;;;56.63;;
44434;SDS011;30138;20.964;105.830;2023-03-23T17:47:17;110.75;;;56.85;;
44434;SDS011;30138;20.964;105.830;2023-03-23T17:52:24;112.68;;;55.90;;
44434;SDS011;30138;20.964;105.830;2023-03-23T17:57:33;107.90;;;55.15;;
44434;SDS011;30138;20.964;105.830;2023-03-23T18:02:40;116.90;;;56.60;;
44434;SDS011;30138;20.964;105.830;2023-03-23T18:07:46;104.53;;;55.83;;
44434;SDS011;30138;20.964;105.830;2023-03-23T18:12:55;109.60;;;56.20;;
44434;SDS011;30138;20.964;105.830;2023-03-23T18:18:02;99.75;;;54.20;;
44434;SDS011;30138;20.964;105.830;2023-03-23T18:23:11;105.35;;;53.22;;
44434;SDS011;30138;20.964;105.830;2023-03-23T18:28:20;103.97;;;54.20;;
44434;SDS011;30138;20.964;105.830;2023-03-23T18:33:28;104.55;;;56.53;;
44434;SDS011;30138;20.964;105.830;2023-03-23T18:38:35;103.88;;;54.38;;
44434;SDS011;30138;20.964;105.830;2023-03-23T18:43:44;98.40;;;55.00;;
44434;SDS011;30138;20.964;105.830;2023-03-23T18:48:50;107.55;;;56.60;;
44434;SDS011;30138;20.964;105.830;2023-03-23T18:53:57;110.78;;;56.95;;
44434;SDS011;30138;20.964;105.830;2023-03-23T18:59:05;95.40;;;55.75;;
44434;SDS011;30138;20.964;105.830;2023-03-23T19:04:12;115.15;;;58.05;;
44434;SDS011;30138;20.964;105.830;2023-03-23T19:09:23;110.27;;;59.20;;
44434;SDS011;30138;20.964;105.830;2023-03-23T19:14:32;107.90;;;58.55;;
44434;SDS011;30138;20.964;105.830;2023-03-23T19:19:39;111.28;;;59.67;;
44434;SDS011;30138;20.964;105.830;2023-03-23T19:24:46;115.38;;;60.72;;
44434;SDS011;30138;20.964;105.830;2023-03-23T19:29:54;119.60;;;59.95;;
44434;SDS011;30138;20.964;105.830;2023-03-23T19:35:01;112.80;;;59.00;;
44434;SDS011;30138;20.964;105.830;2023-03-23T19:40:09;114.22;;;59.92;;
44434;SDS011;30138;20.964;105.830;2023-03-23T19:45:18;110.20;;;58.47;;
44434;SDS011;30138;20.964;105.830;2023-03-23T19:50:26;114.60;;;57.92;;
44434;SDS011;30138;20.964;105.830;2023-03-23T19:55:33;110.40;;;56.85;;
44434;SDS011;30138;20.964;105.830;2023-03-23T20:00:43;107.35;;;56.97;;
44434;SDS011;30138;20.964;105.830;2023-03-23T20:05:49;114.57;;;55.65;;
44434;SDS011;30138;20.964;105.830;2023-03-23T20:11:02;109.75;;;56.40;;
44434;SDS011;30138;20.964;105.830;2023-03-23T20:16:11;109.95;;;56.22;;
44434;SDS011;30138;20.964;105.830;2023-03-23T20:21:18;108.80;;;56.75;;
44434;SDS011;30138;20.964;105.830;2023-03-23T20:26:27;113.93;;;57.30;;
44434;SDS011;30138;20.964;105.830;2023-03-23T20:31:39;105.68;;;56.75;;
44434;SDS011;30138;20.964;105.830;2023-03-23T20:36:47;113.70;;;58.42;;
44434;SDS011;30138;20.964;105.830;2023-03-23T20:41:55;108.90;;;57.80;;
44434;SDS011;30138;20.964;105.830;2023-03-23T20:47:08;108.93;;;57.63;;
44434;SDS011;30138;20.964;105.830;2023-03-23T20:52:15;102.10;;;57.22;;
44434;SDS011;30138;20.964;105.830;2023-03-23T20:57:22;109.68;;;59.08;;
44434;SDS011;30138;20.964;105.830;2023-03-23T21:02:31;114.72;;;58.67;;
44434;SDS011;30138;20.964;105.830;2023-03-23T21:07:37;109.40;;;59.15;;
44434;SDS011;30138;20.964;105.830;2023-03-23T21:12:45;105.15;;;57.17;;
44434;SDS011;30138;20.964;105.830;2023-03-23T21:17:53;111.95;;;60.78;;
44434;SDS011;30138;20.964;105.830;2023-03-23T21:23:00;121.45;;;69.93;;
44434;SDS011;30138;20.964;105.830;2023-03-23T21:28:08;121.03;;;74.35;;
44434;SDS011;30138;20.964;105.830;2023-03-23T21:33:17;121.57;;;68.57;;
44434;SDS011;30138;20.964;105.830;2023-03-23T21:38:25;116.45;;;64.25;;
44434;SDS011;30138;20.964;105.830;2023-03-23T21:43:32;116.20;;;64.50;;
44434;SDS011;30138;20.964;105.830;2023-03-23T21:48:43;110.13;;;62.90;;
44434;SDS011;30138;20.964;105.830;2023-03-23T21:53:52;109.70;;;61.45;;
44434;SDS011;30138;20.964;105.830;2023-03-23T21:58:59;124.18;;;66.13;;
44434;SDS011;30138;20.964;105.830;2023-03-23T22:04:09;122.95;;;68.63;;
44434;SDS011;30138;20.964;105.830;2023-03-23T22:09:17;133.30;;;70.75;;
44434;SDS011;30138;20.964;105.830;2023-03-23T22:14:24;122.13;;;69.95;;
44434;SDS011;30138;20.964;105.830;2023-03-23T22:19:39;130.88;;;72.78;;
44434;SDS011;30138;20.964;105.830;2023-03-23T22:24:45;130.65;;;72.80;;
44434;SDS011;30138;20.964;105.830;2023-03-23T22:29:52;134.30;;;74.65;;
44434;SDS011;30138;20.964;105.830;2023-03-23T22:35:02;130.60;;;74.45;;
44434;SDS011;30138;20.964;105.830;2023-03-23T22:40:13;130.48;;;72.22;;
44434;SDS011;30138;20.964;105.830;2023-03-23T22:45:24;141.57;;;74.57;;
44434;SDS011;30138;20.964;105.830;2023-03-23T22:50:35;138.25;;;74.72;;
44434;SDS011;30138;20.964;105.830;2023-03-23T22:55:46;141.10;;;76.90;;
44434;SDS011;30138;20.964;105.830;2023-03-23T23:00:59;147.75;;;80.78;;
44434;SDS011;30138;20.964;105.830;2023-03-23T23:06:11;148.33;;;84.27;;
44434;SDS011;30138;20.964;105.830;2023-03-23T23:11:26;149.43;;;86.10;;
44434;SDS011;30138;20.964;105.830;2023-03-23T23:16:33;169.63;;;94.25;;
44434;SDS011;30138;20.964;105.830;2023-03-23T23:21:43;177.25;;;97.45;;
44434;SDS011;30138;20.964;105.830;2023-03-23T23:26:51;170.07;;;93.95;;
44434;SDS011;30138;20.964;105.830;2023-03-23T23:31:59;152.70;;;88.75;;
44434;SDS011;30138;20.964;105.830;2023-03-23T23:37:10;160.75;;;90.20;;
44434;SDS011;30138;20.964;105.830;2023-03-23T23:42:17;168.73;;;89.47;;
44434;SDS011;30138;20.964;105.830;2023-03-23T23:47:24;172.93;;;93.60;;
44434;SDS011;30138;20.964;105.830;2023-03-23T23:52:33;162.10;;;93.53;;
44434;SDS011;30138;20.964;105.830;2023-03-23T23:57:41;180.48;;;101.47;;
